»·PEaware :: N5435W KSMX-KBFL

N5435W :: KSMX-KBFL

FLIGHT INFORMATION

Flight Status: Arrived
Operator: Privately registered:
United States
More flights under this callsign
Pilot: Anonymous 23155 (23155)
Aircraft: PIPER PA-28R-201 ARROW
(P28R)
More flights by this aircraft type
Origin: KSMX Santa Maria Pub/Capt Hancock
United States
Destination: KBFL Meadows
United States
More flights between these airports :: More routes between these airports
Route: VOR NAVIATION WITH GPS BACKUP
File this flight plan on PilotEdge
Remarks: CAT 5 Rating
Altitude:
(Current/Filed)
7,500ft
Speed:
(Current/Filed)
110kts
Departed: 31-Jan-19 10:05 PM
Arrived: 31-Jan-19 10:47 PM
Distance/Time
Traveled:
76nm/0:42
Distance/Time
To Go:
Arrived

Flight Plot

Page will automatically refresh every two minutes.

Flight plan parsing failed; only flown route is shown


Map Options




Map Legend


Flown Route
Filed Route
Departure Airport
Arrival Airport
Navaid (VOR, NDB)
Fix

Horizontal Profiles

Position Reports

Time Latitude Longitude Heading Altitude Ground
Speed
31-Jan-19 21:39 34.904334 -120.454060 228 264ft 0kts
31-Jan-19 21:40 34.904334 -120.454061 228 264ft 0kts
31-Jan-19 21:41 34.904334 -120.454060 228 264ft 0kts
31-Jan-19 21:42 34.904334 -120.454060 228 264ft 0kts
31-Jan-19 21:43 34.904334 -120.454060 228 264ft 0kts
31-Jan-19 21:44 34.904334 -120.454060 228 264ft 0kts
31-Jan-19 21:45 34.904334 -120.454060 228 264ft 0kts
31-Jan-19 21:46 34.904334 -120.454060 228 264ft 0kts
31-Jan-19 21:47 34.904334 -120.454060 228 264ft 0kts
31-Jan-19 21:48 34.904334 -120.454060 228 264ft 0kts
31-Jan-19 21:49 34.904334 -120.454060 228 264ft 0kts
31-Jan-19 21:50 34.904334 -120.454060 228 264ft 0kts
31-Jan-19 21:51 34.904334 -120.454060 228 264ft 0kts
31-Jan-19 21:52 34.904263 -120.454103 212 264ft 2kts
31-Jan-19 21:53 34.904023 -120.455990 228 264ft 0kts
31-Jan-19 21:54 34.904023 -120.455990 228 264ft 0kts
31-Jan-19 21:55 34.904023 -120.455990 228 264ft 0kts
31-Jan-19 21:56 34.903783 -120.456500 306 264ft 14kts
31-Jan-19 21:57 34.905506 -120.459569 222 264ft 0kts
31-Jan-19 21:58 34.903693 -120.461835 225 264ft 17kts
31-Jan-19 21:59 34.899183 -120.465024 216 264ft 20kts
31-Jan-19 22:00 34.894426 -120.469215 200 264ft 16kts
31-Jan-19 22:01 34.893834 -120.468572 123 264ft 0kts
31-Jan-19 22:02 34.893834 -120.468572 123 264ft 0kts
31-Jan-19 22:03 34.893832 -120.467526 33 264ft 17kts
31-Jan-19 22:04 34.909280 -120.453262 40 953ft 78kts
31-Jan-19 22:05 34.923167 -120.432732 61 2046ft 80kts
31-Jan-19 22:06 34.935455 -120.410077 52 3068ft 81kts
31-Jan-19 22:07 34.950831 -120.389681 37 4033ft 82kts
31-Jan-19 22:08 34.970171 -120.374543 28 4938ft 84kts
31-Jan-19 22:09 34.975950 -120.347245 78 5777ft 85kts
31-Jan-19 22:11 34.983290 -120.319745 65 6584ft 85kts
31-Jan-19 22:12 34.993163 -120.292916 65 7328ft 87kts
31-Jan-19 22:13 35.003405 -120.264858 66 7821ft 112kts
31-Jan-19 22:14 35.017815 -120.224757 66 7561ft 145kts
31-Jan-19 22:15 35.032366 -120.180325 68 7434ft 137kts
31-Jan-19 22:16 35.046187 -120.137391 68 7401ft 134kts
31-Jan-19 22:17 35.059718 -120.095118 68 7479ft 129kts
31-Jan-19 22:18 35.072403 -120.053304 73 7542ft 130kts
31-Jan-19 22:19 35.082673 -120.009931 73 7540ft 133kts
31-Jan-19 22:20 35.092864 -119.966464 73 7546ft 133kts
31-Jan-19 22:21 35.102942 -119.923077 74 7556ft 133kts
31-Jan-19 22:22 35.112882 -119.879996 74 7563ft 133kts
31-Jan-19 22:23 35.122871 -119.836359 74 7569ft 133kts
31-Jan-19 22:24 35.132780 -119.792715 74 7575ft 133kts
31-Jan-19 22:25 35.142740 -119.748542 74 7490ft 137kts
31-Jan-19 22:26 35.152664 -119.704135 74 7465ft 133kts
31-Jan-19 22:27 35.162435 -119.660071 74 7453ft 134kts
31-Jan-19 22:28 35.172040 -119.616404 74 7496ft 132kts
31-Jan-19 22:29 35.181630 -119.572441 74 7473ft 133kts
31-Jan-19 22:30 35.191155 -119.528413 74 7469ft 134kts
31-Jan-19 22:31 35.200606 -119.484342 74 7453ft 131kts
31-Jan-19 22:31 35.208371 -119.447900 74 7178ft 133kts
31-Jan-19 22:33 35.219144 -119.396932 75 6863ft 132kts
31-Jan-19 22:34 35.228270 -119.353357 75 6608ft 132kts
31-Jan-19 22:35 35.237290 -119.309904 75 6317ft 130kts
31-Jan-19 22:35 35.247775 -119.275766 60 5945ft 129kts
31-Jan-19 22:36 35.265291 -119.237275 60 5379ft 128kts
31-Jan-19 22:37 35.282495 -119.199358 60 4666ft 127kts
31-Jan-19 22:39 35.302295 -119.155452 61 3867ft 124kts
31-Jan-19 22:39 35.316424 -119.124500 57 3148ft 124kts
31-Jan-19 22:40 35.339232 -119.093469 45 2254ft 120kts
31-Jan-19 22:41 35.360795 -119.066480 45 1571ft 96kts
31-Jan-19 22:42 35.378001 -119.047932 38 1029ft 66kts
31-Jan-19 22:43 35.396083 -119.031432 30 1104ft 84kts
31-Jan-19 22:44 35.414218 -119.033660 320 787ft 90kts
31-Jan-19 22:45 35.430634 -119.052494 315 527ft 78kts
31-Jan-19 22:46 35.436343 -119.057343 90 493ft 14kts
31-Jan-19 22:47 35.437493 -119.055180 103 500ft 0kts
31-Jan-19 22:48 35.437493 -119.055181 103 500ft 0kts
31-Jan-19 22:49 35.437493 -119.055181 103 500ft 0kts
31-Jan-19 22:50 35.437493 -119.055181 103 500ft 0kts

Navigation Log

Ident Type
Flight plan parsing failed, navigation log unavailable